KCLK/CLK METAR and TAF weather

Enter ICAO airport designator
Station Type Date Time Source
KCLK METAR 2020/07/12 05:35 UTC NOAA

KCLK 120535Z AUTO 11013G18KT 10SM CLR 29/20 A2996 RMK AO2 LTG DSNT E AND SE


Station Type Date Time Source
KCLK Decoded METAR 2020/07/12 05:35 UTC NOAA

Clinton, Clinton Regional Airport, OK, United States (KCLK) 35-32-17N 098-55-17W
Jul 12, 2020 - 01:35 AM EDT / 2020.07.12 0535 UTC
Wind: from the ESE (110 degrees) at 15 MPH (13 KT) gusting to 21 MPH (18 KT):0
Visibility: 10 mile(s):0
Sky conditions: clear
Weather: Lightning observed
Temperature: 84 F (29 C)
Dew Point: 68 F (20 C)
Relative Humidity: 58%
Pressure (altimeter): 29.96 in. Hg (1014 hPa)
ob: KCLK 120535Z AUTO 11013G18KT 10SM CLR 29/20 A2996 RMK AO2 LTG DSNT E AND SE
cycle: 5

Station Type Date Time Source
KCLK TAF UTC NOAA

Error!

Example: see airport list